Time,TemperatureF,DewpointF,PressureIn,WindDirection,WindDirectionDegrees,WindSpeedMPH,WindSpeedGustMPH,Humidity,HourlyPrecipIn,Conditions,Clouds,dailyrainin,SoftwareType,DateUTC
2013-06-14 00:01:00,75.0,68.0,-100.00,ENE,61,7.0,15.0,80,0.00,,,0.00,,2013-06-14 10:01:00,
2013-06-14 00:11:00,75.0,68.0,-100.00,ENE,61,7.0,15.0,80,0.00,,,0.00,,2013-06-14 10:11:00,
2013-06-14 00:22:00,75.0,68.0,-100.00,ENE,61,7.0,15.0,80,0.00,,,0.00,,2013-06-14 10:22:00,
2013-06-14 00:34:00,75.0,68.0,-100.00,ENE,61,7.0,15.0,80,0.00,,,0.00,,2013-06-14 10:34:00,
2013-06-14 00:41:00,74.0,68.0,-100.00,East,82,5.0,14.0,81,0.00,,,0.00,,2013-06-14 10:41:00,
2013-06-14 01:02:00,74.0,68.0,-100.00,East,82,5.0,14.0,81,0.00,,,0.00,,2013-06-14 11:02:00,
2013-06-14 01:11:00,74.0,68.0,-100.00,East,82,5.0,14.0,81,0.00,,,0.00,,2013-06-14 11:11:00,
2013-06-14 01:22:00,74.0,68.0,-100.00,East,82,5.0,14.0,81,0.00,,,0.00,,2013-06-14 11:22:00,
2013-06-14 01:32:00,74.0,68.0,-100.00,East,82,5.0,14.0,81,0.00,,,0.00,,2013-06-14 11:32:00,
2013-06-14 01:41:00,74.0,68.0,-100.00,East,87,6.0,11.0,82,0.01,,,-99.99,,2013-06-14 11:41:00,
2013-06-14 02:01:00,74.0,68.0,-100.00,East,87,6.0,11.0,82,0.01,,,-99.99,,2013-06-14 12:01:00,
2013-06-14 02:11:00,74.0,68.0,-100.00,East,87,6.0,11.0,82,0.01,,,-99.99,,2013-06-14 12:11:00,
2013-06-14 02:22:00,74.0,68.0,-100.00,East,87,6.0,11.0,82,0.01,,,-99.99,,2013-06-14 12:22:00,
2013-06-14 02:32:00,74.0,68.0,-100.00,East,87,6.0,11.0,82,0.01,,,-99.99,,2013-06-14 12:32:00,
2013-06-14 02:41:00,74.0,68.0,-100.00,NNE,17,5.0,9.0,83,0.01,,,0.02,,2013-06-14 12:41:00,
2013-06-14 03:11:00,74.0,68.0,-100.00,NNE,17,5.0,9.0,83,0.01,,,0.02,,2013-06-14 13:11:00,
2013-06-14 03:22:00,74.0,68.0,-100.00,NNE,17,5.0,9.0,83,0.01,,,0.02,,2013-06-14 13:22:00,
2013-06-14 03:33:00,74.0,68.0,-100.00,NNE,17,5.0,9.0,83,0.01,,,0.02,,2013-06-14 13:33:00,
2013-06-14 03:41:00,74.0,69.0,-100.00,ENE,66,7.0,11.0,84,0.00,,,0.02,,2013-06-14 13:41:00,
2013-06-14 04:11:00,74.0,69.0,-100.00,ENE,66,7.0,11.0,84,0.00,,,0.02,,2013-06-14 14:11:00,
2013-06-14 04:22:00,74.0,69.0,-100.00,ENE,66,7.0,11.0,84,0.00,,,0.02,,2013-06-14 14:22:00,
2013-06-14 04:34:00,74.0,69.0,-100.00,ENE,66,7.0,11.0,84,0.00,,,0.02,,2013-06-14 14:34:00,
2013-06-14 04:41:00,74.0,69.0,-100.00,NNE,19,5.0,12.0,84,0.00,,,0.02,,2013-06-14 14:41:00,
2013-06-14 05:11:00,74.0,69.0,-100.00,NNE,19,5.0,12.0,84,0.00,,,0.02,,2013-06-14 15:11:00,
2013-06-14 05:22:00,74.0,69.0,-100.00,NNE,19,5.0,12.0,84,0.00,,,0.02,,2013-06-14 15:22:00,
2013-06-14 05:33:00,74.0,69.0,-100.00,NNE,19,5.0,12.0,84,0.00,,,0.02,,2013-06-14 15:33:00,
2013-06-14 05:41:00,73.0,68.0,-100.00,North,349,4.0,9.0,84,0.00,,,0.02,,2013-06-14 15:41:00,
2013-06-14 06:11:00,73.0,68.0,-100.00,North,349,4.0,9.0,84,0.00,,,0.02,,2013-06-14 16:11:00,
2013-06-14 06:22:00,73.0,68.0,-100.00,North,349,4.0,9.0,84,0.00,,,0.02,,2013-06-14 16:22:00,
2013-06-14 06:32:00,73.0,68.0,-100.00,North,349,4.0,9.0,84,0.00,,,0.02,,2013-06-14 16:32:00,
2013-06-14 06:41:00,74.0,69.0,-100.00,NNE,27,6.0,12.0,84,0.00,,,0.02,,2013-06-14 16:41:00,
2013-06-14 07:11:00,74.0,69.0,-100.00,NNE,27,6.0,12.0,84,0.00,,,0.02,,2013-06-14 17:11:00,
2013-06-14 07:22:00,74.0,69.0,-100.00,NNE,27,6.0,12.0,84,0.00,,,0.02,,2013-06-14 17:22:00,
2013-06-14 07:34:00,74.0,69.0,-100.00,NNE,27,6.0,12.0,84,0.00,,,0.02,,2013-06-14 17:34:00,
2013-06-14 07:41:00,76.0,70.0,-100.00,NE,52,8.0,14.0,83,0.00,,,0.02,,2013-06-14 17:41:00,
2013-06-14 08:11:00,76.0,70.0,-100.00,NE,52,8.0,14.0,83,0.00,,,0.02,,2013-06-14 18:11:00,
2013-06-14 08:21:00,76.0,70.0,-100.00,NE,52,8.0,14.0,83,0.00,,,0.02,,2013-06-14 18:21:00,
2013-06-14 08:32:00,76.0,70.0,-100.00,NE,52,8.0,14.0,83,0.00,,,0.02,,2013-06-14 18:32:00,
2013-06-14 08:41:00,78.0,71.0,-100.00,NE,56,9.0,17.0,80,0.00,,,0.02,,2013-06-14 18:41:00,
2013-06-14 09:11:00,78.0,71.0,-100.00,NE,56,9.0,17.0,80,0.00,,,0.02,,2013-06-14 19:11:00,
2013-06-14 09:21:00,78.0,71.0,-100.00,NE,56,9.0,17.0,80,0.00,,,0.02,,2013-06-14 19:21:00,
2013-06-14 09:32:00,78.0,71.0,-100.00,NE,56,9.0,17.0,80,0.00,,,0.02,,2013-06-14 19:32:00,
2013-06-14 09:41:00,79.0,71.0,-100.00,ENE,70,12.0,20.0,76,0.00,,,0.02,,2013-06-14 19:41:00,
2013-06-14 10:11:00,79.0,71.0,-100.00,ENE,70,12.0,20.0,76,0.00,,,0.02,,2013-06-14 20:11:00,
2013-06-14 10:22:00,79.0,71.0,-100.00,ENE,70,12.0,20.0,76,0.00,,,0.02,,2013-06-14 20:22:00,
2013-06-14 10:33:00,79.0,71.0,-100.00,ENE,70,12.0,20.0,76,0.00,,,0.02,,2013-06-14 20:33:00,
2013-06-14 10:41:00,80.0,70.0,-100.00,ENE,72,11.0,19.0,71,0.00,,,0.02,,2013-06-14 20:41:00,
2013-06-14 11:02:00,80.0,70.0,-100.00,ENE,72,11.0,19.0,71,0.00,,,0.02,,2013-06-14 21:02:00,
2013-06-14 11:11:00,80.0,70.0,-100.00,ENE,72,11.0,19.0,71,0.00,,,0.02,,2013-06-14 21:11:00,
2013-06-14 11:22:00,80.0,70.0,-100.00,ENE,72,11.0,19.0,71,0.00,,,0.02,,2013-06-14 21:22:00,
2013-06-14 11:34:00,80.0,70.0,-100.00,ENE,72,11.0,19.0,71,0.00,,,0.02,,2013-06-14 21:34:00,
2013-06-14 11:41:00,80.0,69.0,-100.00,ENE,75,10.0,19.0,69,0.00,,,0.02,,2013-06-14 21:41:00,
2013-06-14 12:01:00,80.0,69.0,-100.00,ENE,75,10.0,19.0,69,0.00,,,0.02,,2013-06-14 22:01:00,
2013-06-14 12:11:00,80.0,69.0,-100.00,ENE,75,10.0,19.0,69,0.00,,,0.02,,2013-06-14 22:11:00,
2013-06-14 12:22:00,80.0,69.0,-100.00,ENE,75,10.0,19.0,69,0.00,,,0.02,,2013-06-14 22:22:00,
2013-06-14 12:33:00,80.0,69.0,-100.00,ENE,75,10.0,19.0,69,0.00,,,0.02,,2013-06-14 22:33:00,
2013-06-14 12:41:00,81.0,69.0,-100.00,East,80,11.0,20.0,67,0.00,,,0.02,,2013-06-14 22:41:00,
2013-06-14 13:11:00,81.0,69.0,-100.00,East,80,11.0,20.0,67,0.00,,,0.02,,2013-06-14 23:11:00,
2013-06-14 13:22:00,81.0,69.0,-100.00,East,80,11.0,20.0,67,0.00,,,0.02,,2013-06-14 23:22:00,
2013-06-14 13:33:00,81.0,69.0,-100.00,East,80,11.0,20.0,67,0.00,,,0.02,,2013-06-14 23:33:00,
2013-06-14 13:41:00,81.0,68.0,-100.00,East,84,14.0,21.0,65,0.00,,,0.02,,2013-06-14 23:41:00,
2013-06-14 14:11:00,81.0,68.0,-100.00,East,84,14.0,21.0,65,0.00,,,0.02,,2013-06-15 00:11:00,
2013-06-14 14:22:00,81.0,68.0,-100.00,East,84,14.0,21.0,65,0.00,,,0.02,,2013-06-15 00:22:00,
2013-06-14 14:33:00,81.0,68.0,-100.00,East,84,14.0,21.0,65,0.00,,,0.02,,2013-06-15 00:33:00,
2013-06-14 14:41:00,81.0,67.0,-100.00,East,89,14.0,26.0,63,0.00,,,0.02,,2013-06-15 00:41:00,
2013-06-14 15:11:00,81.0,67.0,-100.00,East,89,14.0,26.0,63,0.00,,,0.02,,2013-06-15 01:11:00,
2013-06-14 15:22:00,81.0,67.0,-100.00,East,89,14.0,26.0,63,0.00,,,0.02,,2013-06-15 01:22:00,
2013-06-14 15:33:00,81.0,67.0,-100.00,East,89,14.0,26.0,63,0.00,,,0.02,,2013-06-15 01:33:00,
2013-06-14 15:41:00,81.0,67.0,-100.00,East,86,15.0,24.0,62,0.00,,,0.02,,2013-06-15 01:41:00,
2013-06-14 16:02:00,81.0,67.0,-100.00,East,86,15.0,24.0,62,0.00,,,0.02,,2013-06-15 02:02:00,
2013-06-14 16:11:00,81.0,67.0,-100.00,East,86,15.0,24.0,62,0.00,,,0.02,,2013-06-15 02:11:00,
2013-06-14 16:22:00,81.0,67.0,-100.00,East,86,15.0,24.0,62,0.00,,,0.02,,2013-06-15 02:22:00,
2013-06-14 16:33:00,81.0,67.0,-100.00,East,86,15.0,24.0,62,0.00,,,0.02,,2013-06-15 02:33:00,
2013-06-14 16:41:00,81.0,67.0,-100.00,East,88,13.0,21.0,62,0.00,,,0.02,,2013-06-15 02:41:00,
2013-06-14 17:01:00,81.0,67.0,-100.00,East,88,13.0,21.0,62,0.00,,,0.02,,2013-06-15 03:01:00,
2013-06-14 17:11:00,81.0,67.0,-100.00,East,88,13.0,21.0,62,0.00,,,0.02,,2013-06-15 03:11:00,
2013-06-14 17:23:00,81.0,67.0,-100.00,East,88,13.0,21.0,62,0.00,,,0.02,,2013-06-15 03:23:00,
2013-06-14 17:32:00,81.0,67.0,-100.00,East,88,13.0,21.0,62,0.00,,,0.02,,2013-06-15 03:32:00,
2013-06-14 17:41:00,80.0,66.0,-100.00,East,87,13.0,21.0,62,0.00,,,0.02,,2013-06-15 03:41:00,
2013-06-14 18:01:00,80.0,66.0,-100.00,East,87,13.0,21.0,62,0.00,,,0.02,,2013-06-15 04:01:00,
2013-06-14 18:11:00,80.0,66.0,-100.00,East,87,13.0,21.0,62,0.00,,,0.02,,2013-06-15 04:11:00,
2013-06-14 18:22:00,80.0,66.0,-100.00,East,87,13.0,21.0,62,0.00,,,0.02,,2013-06-15 04:22:00,
2013-06-14 18:34:00,80.0,66.0,-100.00,East,87,13.0,21.0,62,0.00,,,0.02,,2013-06-15 04:34:00,
2013-06-14 18:41:00,78.0,65.0,-100.00,East,79,11.0,18.0,64,0.00,,,0.02,,2013-06-15 04:41:00,
2013-06-14 19:02:00,78.0,65.0,-100.00,East,79,11.0,18.0,64,0.00,,,0.02,,2013-06-15 05:02:00,
2013-06-14 19:12:00,78.0,65.0,-100.00,East,79,11.0,18.0,64,0.00,,,0.02,,2013-06-15 05:12:00,
2013-06-14 19:22:00,78.0,65.0,-100.00,East,79,11.0,18.0,64,0.00,,,0.02,,2013-06-15 05:22:00,
2013-06-14 19:34:00,78.0,65.0,-100.00,East,79,11.0,18.0,64,0.00,,,0.02,,2013-06-15 05:34:00,
2013-06-14 19:41:00,77.0,66.0,-100.00,NE,55,8.0,17.0,68,0.00,,,0.02,,2013-06-15 05:41:00,
2013-06-14 20:12:00,77.0,66.0,-100.00,NE,55,8.0,17.0,68,0.00,,,0.02,,2013-06-15 06:12:00,
2013-06-14 20:24:00,77.0,66.0,-100.00,NE,55,8.0,17.0,68,0.00,,,0.02,,2013-06-15 06:24:00,
2013-06-14 20:33:00,77.0,66.0,-100.00,NE,55,8.0,17.0,68,0.00,,,0.02,,2013-06-15 06:33:00,
2013-06-14 20:41:00,76.0,66.0,-100.00,NE,51,9.0,16.0,71,0.00,,,0.02,,2013-06-15 06:41:00,
2013-06-14 21:11:00,76.0,66.0,-100.00,NE,51,9.0,16.0,71,0.00,,,0.02,,2013-06-15 07:11:00,
2013-06-14 21:23:00,76.0,66.0,-100.00,NE,51,9.0,16.0,71,0.00,,,0.02,,2013-06-15 07:23:00,
2013-06-14 21:33:00,76.0,66.0,-100.00,NE,51,9.0,16.0,71,0.00,,,0.02,,2013-06-15 07:33:00,
2013-06-14 21:41:00,76.0,66.0,-100.00,NE,50,8.0,15.0,72,0.00,,,0.02,,2013-06-15 07:41:00,
2013-06-14 22:02:00,76.0,66.0,-100.00,NE,50,8.0,15.0,72,0.00,,,0.02,,2013-06-15 08:02:00,
2013-06-14 22:11:00,76.0,66.0,-100.00,NE,50,8.0,15.0,72,0.00,,,0.02,,2013-06-15 08:11:00,
2013-06-14 22:22:00,76.0,66.0,-100.00,NE,50,8.0,15.0,72,0.00,,,0.02,,2013-06-15 08:22:00,
2013-06-14 22:33:00,76.0,66.0,-100.00,NE,50,8.0,15.0,72,0.00,,,0.02,,2013-06-15 08:33:00,
2013-06-14 22:41:00,75.0,66.0,-100.00,NE,39,8.0,14.0,74,0.00,,,0.02,,2013-06-15 08:41:00,
2013-06-14 23:12:00,75.0,66.0,-100.00,NE,39,8.0,14.0,74,0.00,,,0.02,,2013-06-15 09:12:00,
2013-06-14 23:22:00,75.0,66.0,-100.00,NE,39,8.0,14.0,74,0.00,,,0.02,,2013-06-15 09:22:00,
2013-06-14 23:33:00,75.0,66.0,-100.00,NE,39,8.0,14.0,74,0.00,,,0.02,,2013-06-15 09:33:00,
2013-06-14 23:41:00,75.0,67.0,-100.00,NNE,24,7.0,12.0,76,0.00,,,0.02,,2013-06-15 09:41:00,